createdAt,value
2023-03-05T00:01:32.921Z,32.60
2023-03-05T00:04:01.471Z,57.30
2023-03-05T00:06:30.649Z,26.00
2023-03-05T00:08:58.855Z,91.00
2023-03-05T00:11:30.194Z,99.90
2023-03-05T00:13:58.747Z,99.90
2023-03-05T00:16:27.422Z,99.90
2023-03-05T00:18:57.039Z,99.90
2023-03-05T00:21:30.174Z,99.90
2023-03-05T00:23:58.251Z,99.90
2023-03-05T00:26:26.954Z,99.90
2023-03-05T00:28:58.399Z,99.90
2023-03-05T00:31:31.539Z,99.90
2023-03-05T00:34:08.959Z,99.90
2023-03-05T00:36:40.961Z,99.90
2023-03-05T00:39:08.361Z,99.90
2023-03-05T00:41:38.402Z,99.90
2023-03-05T00:44:06.077Z,99.90
2023-03-05T00:46:37.205Z,99.90
2023-03-05T00:49:05.218Z,89.40
2023-03-05T00:51:32.733Z,87.50
2023-03-05T00:54:00.495Z,99.90
2023-03-05T00:56:27.841Z,1.00
2023-03-05T00:58:56.272Z,51.20
2023-03-05T01:01:24.483Z,72.30
2023-03-05T01:03:52.011Z,62.00
2023-03-05T01:06:19.586Z,67.20
2023-03-05T01:08:49.836Z,59.20
2023-03-05T01:11:17.046Z,60.60
2023-03-05T01:13:44.613Z,65.20
2023-03-05T01:16:11.610Z,68.80
2023-03-05T01:18:40.846Z,92.00
2023-03-05T01:21:08.521Z,72.20
2023-03-05T01:23:37.491Z,1.00
2023-03-05T01:26:06.020Z,56.00
2023-03-05T01:31:01.456Z,16.40
2023-03-05T01:33:29.649Z,20.60
2023-03-05T01:38:24.492Z,26.50
2023-03-05T01:40:51.575Z,44.00
2023-03-05T01:43:26.216Z,21.10
2023-03-05T01:46:17.656Z,16.30
2023-03-05T01:48:49.915Z,99.90
2023-03-05T01:51:18.941Z,99.90
2023-03-05T01:53:47.293Z,33.70
2023-03-05T01:56:15.646Z,54.00
2023-03-05T01:58:44.154Z,12.80
2023-03-05T02:03:43.277Z,2.40
2023-03-05T02:06:10.658Z,4.90
2023-03-05T02:08:37.975Z,12.40
2023-03-05T02:11:05.478Z,9.90
2023-03-05T02:13:35.715Z,8.10
2023-03-05T02:16:03.190Z,2.40
2023-03-05T02:18:30.679Z,1.00
2023-03-05T02:20:57.898Z,1.00
2023-03-05T02:23:28.371Z,1.00
2023-03-05T02:25:56.292Z,1.00
2023-03-05T02:28:30.137Z,1.00
2023-03-05T02:30:57.605Z,1.00
2023-03-05T02:33:25.193Z,1.00
2023-03-05T02:35:52.716Z,1.00
2023-03-05T02:38:21.004Z,1.00
2023-03-05T02:40:48.308Z,1.00
2023-03-05T02:45:45.113Z,1.00
2023-03-05T02:48:12.567Z,1.00
2023-03-05T02:50:41.203Z,1.00
2023-03-05T02:53:09.111Z,1.00
2023-03-05T02:55:37.673Z,1.00
2023-03-05T02:58:05.918Z,99.90
2023-03-05T03:00:33.526Z,99.90
2023-03-05T03:03:01.227Z,1.00
2023-03-05T03:05:28.516Z,1.00
2023-03-05T03:07:55.916Z,1.00
2023-03-05T03:10:23.288Z,1.00
2023-03-05T03:12:50.719Z,99.90
2023-03-05T03:15:18.840Z,1.00
2023-03-05T03:17:46.543Z,1.00
2023-03-05T03:20:17.147Z,19.70
2023-03-05T03:22:45.883Z,99.90
2023-03-05T03:25:19.339Z,39.70
2023-03-05T03:27:46.742Z,35.80
2023-03-05T03:30:14.193Z,17.00
2023-03-05T03:32:42.120Z,97.00
2023-03-05T03:35:10.450Z,99.90
2023-03-05T03:37:37.867Z,99.90
2023-03-05T03:40:07.427Z,99.90
2023-03-05T03:42:34.839Z,99.90
2023-03-05T03:45:02.545Z,99.90
2023-03-05T03:47:31.089Z,18.80
2023-03-05T03:50:01.311Z,99.90
2023-03-05T03:52:28.825Z,99.90
2023-03-05T03:55:01.384Z,99.90
2023-03-05T03:57:30.597Z,99.90
2023-03-05T03:59:57.800Z,99.90
2023-03-05T04:02:26.218Z,1.00
2023-03-05T04:04:53.643Z,99.90
2023-03-05T04:07:20.925Z,99.90
2023-03-05T04:09:50.797Z,99.90
2023-03-05T04:12:18.423Z,99.90
2023-03-05T04:14:50.117Z,99.90
2023-03-05T04:17:17.819Z,99.90
2023-03-05T04:19:45.084Z,99.90
2023-03-05T04:22:15.162Z,99.90
2023-03-05T04:24:42.781Z,99.90
2023-03-05T04:27:10.636Z,99.90
2023-03-05T04:29:37.968Z,1.00
2023-03-05T04:32:06.098Z,1.00
2023-03-05T04:34:33.482Z,99.90
2023-03-05T04:37:00.906Z,99.90
2023-03-05T04:39:28.006Z,99.90
2023-03-05T04:41:55.428Z,1.00
2023-03-05T04:44:25.304Z,99.90
2023-03-05T04:46:52.784Z,99.90
2023-03-05T04:49:20.150Z,99.90
2023-03-05T04:51:47.648Z,99.90
2023-03-05T04:56:42.942Z,99.90
2023-03-05T04:59:09.998Z,99.90
2023-03-05T05:01:37.533Z,99.90
2023-03-05T05:04:04.714Z,99.90
2023-03-05T05:06:32.091Z,99.90
2023-03-05T05:11:27.335Z,1.00
2023-03-05T05:16:22.423Z,99.90
2023-03-05T05:18:49.466Z,99.90
2023-03-05T05:23:46.245Z,99.90
2023-03-05T05:26:16.947Z,99.90
2023-03-05T05:28:44.064Z,99.90
2023-03-05T05:31:15.453Z,96.90
2023-03-05T05:36:14.280Z,99.90
2023-03-05T05:38:42.047Z,99.90
2023-03-05T05:41:14.082Z,1.00
2023-03-05T05:43:42.030Z,7.60
2023-03-05T05:46:13.702Z,17.00
2023-03-05T05:48:42.818Z,1.00
2023-03-05T05:51:16.758Z,99.90
2023-03-05T05:53:44.880Z,1.00
2023-03-05T05:56:13.552Z,1.00
2023-03-05T05:58:42.913Z,1.00
2023-03-05T06:01:17.776Z,1.00
2023-03-05T06:03:46.564Z,99.90
2023-03-05T06:06:17.341Z,99.90
2023-03-05T06:08:44.576Z,99.90
2023-03-05T06:11:12.262Z,99.90
2023-03-05T06:13:39.417Z,99.90
2023-03-05T06:16:14.641Z,99.90
2023-03-05T06:18:41.954Z,99.90
2023-03-05T06:21:13.289Z,99.90
2023-03-05T06:23:40.709Z,99.90
2023-03-05T06:26:10.917Z,99.90
2023-03-05T06:28:38.009Z,99.90
2023-03-05T06:31:14.544Z,99.90
2023-03-05T06:33:42.097Z,99.90
2023-03-05T06:36:12.418Z,1.00
2023-03-05T06:38:40.155Z,1.00
2023-03-05T06:41:11.530Z,99.90
2023-03-05T06:43:40.600Z,1.00
2023-03-05T06:46:12.633Z,99.90
2023-03-05T06:48:40.676Z,99.90
2023-03-05T06:51:27.901Z,99.90
2023-03-05T06:53:56.057Z,99.90
2023-03-05T06:56:23.859Z,99.90
2023-03-05T06:58:52.152Z,99.90
2023-03-05T07:01:23.945Z,99.90
2023-03-05T07:03:52.584Z,99.90
2023-03-05T07:06:21.486Z,1.00
2023-03-05T07:08:49.486Z,99.90
2023-03-05T07:11:19.833Z,99.90
2023-03-05T07:13:50.137Z,99.90
2023-03-05T07:16:20.345Z,99.90
2023-03-05T07:18:48.282Z,99.90
2023-03-05T07:21:24.450Z,99.90
2023-03-05T07:23:54.200Z,99.90
2023-03-05T07:26:22.679Z,1.00
2023-03-05T07:28:49.865Z,99.90
2023-03-05T07:31:20.268Z,99.90
2023-03-05T07:33:48.925Z,99.90
2023-03-05T07:36:17.315Z,99.90
2023-03-05T07:38:44.386Z,99.90
2023-03-05T07:41:14.584Z,99.90
2023-03-05T07:46:11.554Z,99.90
2023-03-05T07:48:38.850Z,99.90
2023-03-05T07:51:09.164Z,99.90
2023-03-05T07:53:36.898Z,99.90
2023-03-05T07:56:04.741Z,99.90
2023-03-05T07:58:31.881Z,98.80
2023-03-05T08:00:59.227Z,99.90
2023-03-05T08:03:26.333Z,99.90
2023-03-05T08:05:54.290Z,99.90
2023-03-05T08:08:21.722Z,99.90
2023-03-05T08:10:49.179Z,99.90
2023-03-05T08:13:16.255Z,99.90
2023-03-05T08:15:43.744Z,99.90
2023-03-05T08:18:11.076Z,99.90
2023-03-05T08:20:38.426Z,99.90
2023-03-05T08:23:07.768Z,99.90
2023-03-05T08:25:35.283Z,99.90
2023-03-05T08:28:03.602Z,97.00
2023-03-05T08:30:31.237Z,99.90
2023-03-05T08:33:01.431Z,99.90
2023-03-05T08:35:29.073Z,99.90
2023-03-05T08:37:56.289Z,97.80
2023-03-05T08:40:23.902Z,99.90
2023-03-05T08:42:51.983Z,99.90
2023-03-05T08:45:20.393Z,99.90
2023-03-05T08:47:47.743Z,99.90
2023-03-05T08:50:15.425Z,78.40
2023-03-05T08:52:42.447Z,82.90
2023-03-05T08:55:11.197Z,99.90
2023-03-05T08:57:38.208Z,99.90
2023-03-05T09:00:07.443Z,99.90
2023-03-05T09:02:35.435Z,72.30
2023-03-05T09:05:03.789Z,72.80
2023-03-05T09:07:30.820Z,99.90
2023-03-05T09:10:00.875Z,99.90
2023-03-05T09:12:30.436Z,56.20
2023-03-05T09:14:57.849Z,99.90
2023-03-05T09:19:52.962Z,99.90
2023-03-05T09:22:22.706Z,99.90
2023-03-05T09:24:50.342Z,99.90
2023-03-05T09:27:18.862Z,99.90
2023-03-05T09:29:46.353Z,99.90
2023-03-05T09:32:13.682Z,27.50
2023-03-05T09:34:41.187Z,99.90
2023-03-05T09:37:09.133Z,99.90
2023-03-05T09:39:37.244Z,99.90
2023-03-05T09:42:24.637Z,99.90
2023-03-05T09:45:09.048Z,99.90
2023-03-05T09:47:45.146Z,9.70
2023-03-05T09:50:32.486Z,99.90
2023-03-05T09:53:04.362Z,99.90
2023-03-05T09:55:59.415Z,99.90
2023-03-05T09:58:26.374Z,99.90
2023-03-05T10:01:17.821Z,99.90
2023-03-05T10:04:01.625Z,29.60
2023-03-05T10:06:36.973Z,99.90
2023-03-05T10:09:31.523Z,99.90
2023-03-05T10:12:14.699Z,99.90
2023-03-05T10:14:48.603Z,99.90
2023-03-05T10:17:37.311Z,99.90
2023-03-05T10:20:29.683Z,99.90
2023-03-05T10:23:29.326Z,99.90
2023-03-05T10:26:05.056Z,99.90
2023-03-05T10:29:04.482Z,99.90
2023-03-05T10:31:49.230Z,99.90
2023-03-05T10:34:30.977Z,1.00
2023-03-05T10:37:01.393Z,1.00
2023-03-05T10:39:40.881Z,99.90
2023-03-05T10:42:35.489Z,99.90
2023-03-05T10:45:24.230Z,99.90
2023-03-05T10:48:01.563Z,99.90
2023-03-05T10:50:36.043Z,99.90
2023-03-05T10:53:06.174Z,99.90
2023-03-05T10:55:35.918Z,99.90
2023-03-05T10:58:14.846Z,1.00
2023-03-05T11:01:12.732Z,99.90
2023-03-05T11:04:08.695Z,99.90
2023-03-05T11:06:43.256Z,99.90
2023-03-05T11:09:29.370Z,99.90
2023-03-05T11:12:14.956Z,99.90
2023-03-05T11:14:48.016Z,99.90
2023-03-05T11:17:49.008Z,99.90
2023-03-05T11:20:30.082Z,99.90
2023-03-05T11:23:26.296Z,99.90
2023-03-05T11:26:04.053Z,99.90
2023-03-05T11:28:39.037Z,99.90
2023-03-05T11:31:21.431Z,99.90
2023-03-05T11:34:05.834Z,99.90
2023-03-05T11:36:35.927Z,99.90
2023-03-05T11:39:06.401Z,99.90
2023-03-05T11:41:36.390Z,99.90
2023-03-05T11:44:33.504Z,99.90
2023-03-05T11:47:42.534Z,99.90
2023-03-05T11:50:24.803Z,99.90
2023-03-05T11:53:12.093Z,99.90
2023-03-05T11:55:42.455Z,99.90
2023-03-05T11:58:31.506Z,1.00
2023-03-05T12:01:00.419Z,99.90
2023-03-05T12:03:37.156Z,99.90
2023-03-05T12:06:32.460Z,99.90
2023-03-05T12:09:09.653Z,99.90
2023-03-05T12:11:37.398Z,99.90
2023-03-05T12:14:10.631Z,99.90
2023-03-05T12:16:41.505Z,99.90
2023-03-05T12:19:28.440Z,99.90
2023-03-05T12:21:57.315Z,99.90
2023-03-05T12:24:27.497Z,99.90
2023-03-05T12:27:04.701Z,99.90
2023-03-05T12:29:46.107Z,22.70
2023-03-05T12:32:23.201Z,99.90
2023-03-05T12:34:59.550Z,99.90
2023-03-05T12:37:27.323Z,99.90
2023-03-05T12:40:08.759Z,99.90
2023-03-05T12:42:49.393Z,99.90
2023-03-05T12:45:16.404Z,99.90
2023-03-05T12:47:56.799Z,13.30
2023-03-05T12:50:26.872Z,99.90
2023-03-05T12:53:04.400Z,99.90
2023-03-05T12:55:50.270Z,99.90
2023-03-05T12:58:54.358Z,99.90
2023-03-05T13:01:36.764Z,99.90
2023-03-05T13:04:17.091Z,99.90
2023-03-05T13:06:45.627Z,99.90
2023-03-05T13:09:25.121Z,59.90
2023-03-05T13:11:54.134Z,99.90
2023-03-05T13:14:44.174Z,99.90
2023-03-05T13:17:30.848Z,99.90
2023-03-05T13:20:06.153Z,99.90
2023-03-05T13:22:38.977Z,99.90
2023-03-05T13:25:23.034Z,99.90
2023-03-05T13:27:50.143Z,99.90
2023-03-05T13:30:23.645Z,99.90
2023-03-05T13:32:53.009Z,99.90
2023-03-05T13:35:21.148Z,99.90
2023-03-05T13:37:49.491Z,99.90
2023-03-05T13:40:29.089Z,99.90
2023-03-05T13:43:08.580Z,99.90
2023-03-05T13:45:35.980Z,99.90
2023-03-05T13:48:07.853Z,99.90
2023-03-05T13:50:37.848Z,99.90
2023-03-05T13:53:26.210Z,99.90
2023-03-05T13:56:04.595Z,99.90
2023-03-05T13:58:53.461Z,99.90
2023-03-05T14:01:27.250Z,99.90
2023-03-05T14:03:58.029Z,99.90
2023-03-05T14:06:28.401Z,99.90
2023-03-05T14:09:03.048Z,99.90
2023-03-05T14:11:30.817Z,99.90
2023-03-05T14:14:08.098Z,99.90
2023-03-05T14:16:35.764Z,99.90
2023-03-05T14:19:13.670Z,99.90
2023-03-05T14:21:50.758Z,99.90
2023-03-05T14:24:23.632Z,99.90
2023-03-05T14:26:57.198Z,1.00
2023-03-05T14:29:28.983Z,99.90
2023-03-05T14:32:09.085Z,99.90
2023-03-05T14:34:39.055Z,11.20
2023-03-05T14:37:24.349Z,1.00
2023-03-05T14:40:08.057Z,99.90
2023-03-05T14:42:55.374Z,99.90
2023-03-05T14:45:31.277Z,5.60
2023-03-05T14:48:00.510Z,99.90
2023-03-05T14:50:30.647Z,99.90
2023-03-05T14:53:01.633Z,1.00
2023-03-05T14:55:31.986Z,1.00
2023-03-05T14:58:13.359Z,1.00
2023-03-05T15:00:41.404Z,99.80
2023-03-05T15:03:13.379Z,99.90
2023-03-05T15:05:41.408Z,99.90
2023-03-05T15:08:18.625Z,99.90
2023-03-05T15:10:46.535Z,99.90
2023-03-05T15:13:18.250Z,97.30
2023-03-05T15:15:46.947Z,99.90
2023-03-05T15:18:17.113Z,99.90
2023-03-05T15:20:45.917Z,99.90
2023-03-05T15:23:13.428Z,99.90
2023-03-05T15:25:40.987Z,99.90
2023-03-05T15:28:08.796Z,99.90
2023-03-05T15:30:38.867Z,90.20
2023-03-05T15:33:09.436Z,99.90
2023-03-05T15:35:37.504Z,99.90
2023-03-05T15:38:05.481Z,99.90
2023-03-05T15:40:32.747Z,99.90
2023-03-05T15:43:01.436Z,99.90
2023-03-05T15:45:31.387Z,52.30
2023-03-05T15:48:02.071Z,99.90
2023-03-05T15:50:29.419Z,1.00
2023-03-05T15:52:57.941Z,27.70
2023-03-05T15:55:25.087Z,99.90
2023-03-05T15:57:53.746Z,99.90
2023-03-05T16:00:27.882Z,99.90
2023-03-05T16:02:55.408Z,99.90
2023-03-05T16:05:23.213Z,99.90
2023-03-05T16:07:52.240Z,99.90
2023-03-05T16:10:24.025Z,99.90
2023-03-05T16:12:55.486Z,1.00
2023-03-05T16:15:23.675Z,1.00
2023-03-05T16:17:55.823Z,1.00
2023-03-05T16:20:23.565Z,1.00
2023-03-05T16:22:52.152Z,1.00
2023-03-05T16:25:19.555Z,1.00
2023-03-05T16:27:47.094Z,1.00
2023-03-05T16:30:18.180Z,1.00
2023-03-05T16:32:45.543Z,1.00
2023-03-05T16:35:13.210Z,1.00
2023-03-05T16:37:41.576Z,1.00
2023-03-05T16:40:11.305Z,1.00
2023-03-05T16:42:38.776Z,99.90
2023-03-05T16:45:06.965Z,99.90
2023-03-05T16:47:34.954Z,99.90
2023-03-05T16:50:02.237Z,99.90
2023-03-05T16:52:31.230Z,99.90
2023-03-05T16:54:58.537Z,99.90
2023-03-05T16:57:26.521Z,99.90
2023-03-05T17:00:02.486Z,99.90
2023-03-05T17:02:34.006Z,99.90
2023-03-05T17:05:01.656Z,99.90
2023-03-05T17:07:29.300Z,99.90
2023-03-05T17:09:59.431Z,99.90
2023-03-05T17:12:26.981Z,99.90
2023-03-05T17:14:54.085Z,99.90
2023-03-05T17:17:25.947Z,99.90
2023-03-05T17:19:53.222Z,99.90
2023-03-05T17:22:20.764Z,1.00
2023-03-05T17:24:48.123Z,1.00
2023-03-05T17:27:22.425Z,1.00
2023-03-05T17:32:19.815Z,1.00
2023-03-05T17:34:49.871Z,1.00
2023-03-05T17:37:19.188Z,1.00
2023-03-05T17:39:46.309Z,1.00
2023-03-05T17:42:15.806Z,1.00
2023-03-05T17:44:43.133Z,1.00
2023-03-05T17:47:10.680Z,1.00
2023-03-05T17:49:38.303Z,99.90
2023-03-05T17:52:06.294Z,99.90
2023-03-05T17:54:33.762Z,99.90
2023-03-05T17:57:01.400Z,99.90
2023-03-05T17:59:28.714Z,99.90
2023-03-05T18:01:56.506Z,99.90
2023-03-05T18:04:23.806Z,99.90
2023-03-05T18:06:51.246Z,99.90
2023-03-05T18:09:18.591Z,99.90
2023-03-05T18:11:45.952Z,99.90
2023-03-05T18:14:14.618Z,99.90
2023-03-05T18:16:43.221Z,1.00
2023-03-05T18:19:10.822Z,99.90
2023-03-05T18:21:40.528Z,1.00
2023-03-05T18:24:08.955Z,1.00
2023-03-05T18:26:36.406Z,1.00
2023-03-05T18:29:03.659Z,1.00
2023-03-05T18:31:31.781Z,1.00
2023-03-05T18:33:59.086Z,1.00
2023-03-05T18:36:26.377Z,1.00
2023-03-05T18:38:53.439Z,1.00
2023-03-05T18:41:27.813Z,1.00
2023-03-05T18:43:56.701Z,1.00
2023-03-05T18:46:24.704Z,3.90
2023-03-05T18:48:51.908Z,17.60
2023-03-05T18:51:21.702Z,11.30
2023-03-05T18:53:50.243Z,19.50
2023-03-05T18:56:17.781Z,36.80
2023-03-05T18:58:46.620Z,72.50
2023-03-05T19:01:17.570Z,76.00
2023-03-05T19:03:49.342Z,85.10
2023-03-05T19:06:17.851Z,89.90
2023-03-05T19:08:45.369Z,95.20
2023-03-05T19:11:30.636Z,99.90
2023-03-05T19:13:58.506Z,99.90
2023-03-05T19:16:30.448Z,99.90
2023-03-05T19:19:15.713Z,99.90
2023-03-05T19:21:45.291Z,99.90
2023-03-05T19:24:13.071Z,99.90
2023-03-05T19:26:42.613Z,99.90
2023-03-05T19:29:10.219Z,99.90
2023-03-05T19:31:38.762Z,99.90
2023-03-05T19:34:06.310Z,99.90
2023-03-05T19:36:35.496Z,99.90
2023-03-05T19:39:06.970Z,99.90
2023-03-05T19:41:35.216Z,99.90
2023-03-05T19:44:03.272Z,99.90
2023-03-05T19:46:31.223Z,99.90
2023-03-05T19:48:59.054Z,99.90
2023-03-05T19:51:26.971Z,99.90
2023-03-05T19:53:54.057Z,99.90
2023-03-05T19:56:21.663Z,99.90
2023-03-05T19:58:49.259Z,99.90
2023-03-05T20:01:25.338Z,99.90
2023-03-05T20:03:54.960Z,99.90
2023-03-05T20:06:23.780Z,99.90
2023-03-05T20:08:51.215Z,99.90
2023-03-05T20:11:19.690Z,99.90
2023-03-05T20:13:47.040Z,99.90
2023-03-05T20:16:18.811Z,99.90
2023-03-05T20:18:47.148Z,99.90
2023-03-05T20:21:24.424Z,99.90
2023-03-05T20:23:53.480Z,99.90
2023-03-05T20:26:22.105Z,99.90
2023-03-05T20:28:49.898Z,99.90
2023-03-05T20:31:25.516Z,99.90
2023-03-05T20:33:52.810Z,99.90
2023-03-05T20:36:20.252Z,99.90
2023-03-05T20:38:47.557Z,99.90
2023-03-05T20:41:17.674Z,99.90
2023-03-05T20:43:49.938Z,99.90
2023-03-05T20:46:26.675Z,99.90
2023-03-05T20:48:59.123Z,99.90
2023-03-05T20:51:28.246Z,99.90
2023-03-05T20:53:58.269Z,99.90
2023-03-05T20:56:27.968Z,99.90
2023-03-05T20:58:58.193Z,99.90
2023-03-05T21:01:26.625Z,99.90
2023-03-05T21:03:53.850Z,99.90
2023-03-05T21:06:24.638Z,99.90
2023-03-05T21:08:51.696Z,99.90
2023-03-05T21:11:20.199Z,99.90
2023-03-05T21:13:47.284Z,99.90
2023-03-05T21:16:20.163Z,99.90
2023-03-05T21:18:48.060Z,99.90
2023-03-05T21:21:15.405Z,99.90
2023-03-05T21:23:47.212Z,99.90
2023-03-05T21:26:15.164Z,99.90
2023-03-05T21:28:42.987Z,99.90
2023-03-05T21:31:16.516Z,99.90
2023-03-05T21:33:43.729Z,99.90
2023-03-05T21:36:11.307Z,99.90
2023-03-05T21:38:41.225Z,99.90
2023-03-05T21:41:08.465Z,99.90
2023-03-05T21:43:39.980Z,99.90
2023-03-05T21:46:07.492Z,99.90
2023-03-05T21:48:37.174Z,99.90
2023-03-05T21:51:09.163Z,99.90
2023-03-05T21:53:36.526Z,99.90
2023-03-05T21:56:22.072Z,99.90
2023-03-05T21:58:49.639Z,99.90
2023-03-05T22:01:19.318Z,99.90
2023-03-05T22:03:47.576Z,99.90
2023-03-05T22:06:17.600Z,99.90
2023-03-05T22:08:44.981Z,99.90
2023-03-05T22:11:15.900Z,99.90
2023-03-05T22:13:43.653Z,99.90
2023-03-05T22:16:12.058Z,99.90
2023-03-05T22:18:39.126Z,99.90
2023-03-05T22:21:20.535Z,99.90
2023-03-05T22:23:48.138Z,99.90
2023-03-05T22:26:16.028Z,99.90
2023-03-05T22:28:45.392Z,99.90
2023-03-05T22:31:21.086Z,99.90
2023-03-05T22:33:48.580Z,99.90
2023-03-05T22:36:16.030Z,99.90
2023-03-05T22:38:47.149Z,99.90
2023-03-05T22:41:16.987Z,99.90
2023-03-05T22:43:46.283Z,99.90
2023-03-05T22:46:23.135Z,99.90
2023-03-05T22:48:51.206Z,99.90
2023-03-05T22:51:19.802Z,99.90
2023-03-05T22:53:46.876Z,99.90
2023-03-05T22:56:18.299Z,99.90
2023-03-05T22:58:45.706Z,99.90
2023-03-05T23:01:13.309Z,99.90
2023-03-05T23:03:41.788Z,99.90
2023-03-05T23:06:09.832Z,99.90
2023-03-05T23:08:37.092Z,99.90
2023-03-05T23:11:10.039Z,99.90
2023-03-05T23:13:39.597Z,99.90
2023-03-05T23:16:07.390Z,99.90
2023-03-05T23:18:35.024Z,99.90
2023-03-05T23:21:02.751Z,99.90
2023-03-05T23:23:29.925Z,99.90
2023-03-05T23:25:57.403Z,99.90
2023-03-05T23:28:24.462Z,99.90
2023-03-05T23:30:51.901Z,99.90
2023-03-05T23:33:24.206Z,99.90
2023-03-05T23:35:57.682Z,99.90
2023-03-05T23:38:27.508Z,99.90
2023-03-05T23:40:59.777Z,99.90
2023-03-05T23:43:27.906Z,99.90
2023-03-05T23:46:01.604Z,99.90
2023-03-05T23:48:29.871Z,99.90
2023-03-05T23:50:57.216Z,99.90
2023-03-05T23:53:27.292Z,99.90
2023-03-05T23:55:55.692Z,99.90
2023-03-05T23:58:23.283Z,99.90
